createdAt,value
2023-03-15T00:02:01.295Z,5.60
2023-03-15T00:04:28.818Z,5.20
2023-03-15T00:06:55.910Z,5.50
2023-03-15T00:09:24.180Z,5.60
2023-03-15T00:11:52.274Z,4.90
2023-03-15T00:14:19.053Z,5.10
2023-03-15T00:16:47.384Z,4.47
2023-03-15T00:19:14.307Z,4.37
2023-03-15T00:21:43.264Z,4.17
2023-03-15T00:24:11.565Z,4.27
2023-03-15T00:26:38.942Z,6.27
2023-03-15T00:29:08.556Z,4.33
2023-03-15T00:31:36.045Z,5.03
2023-03-15T00:34:03.144Z,6.33
2023-03-15T00:36:32.055Z,4.93
2023-03-15T00:38:58.768Z,5.50
2023-03-15T00:41:25.858Z,5.20
2023-03-15T00:43:52.952Z,5.40
2023-03-15T00:46:20.698Z,5.03
2023-03-15T00:48:49.710Z,5.43
2023-03-15T00:51:22.587Z,5.23
2023-03-15T00:53:51.599Z,6.77
2023-03-15T00:56:21.935Z,5.60
2023-03-15T00:58:49.353Z,6.00
2023-03-15T01:01:26.963Z,5.97
2023-03-15T01:03:54.272Z,5.67
2023-03-15T01:06:23.665Z,6.03
2023-03-15T01:08:51.588Z,5.10
2023-03-15T01:11:24.218Z,5.30
2023-03-15T01:13:52.425Z,4.30
2023-03-15T01:16:20.044Z,5.07
2023-03-15T01:18:46.934Z,4.90
2023-03-15T01:21:16.121Z,5.13
2023-03-15T01:23:45.850Z,4.27
2023-03-15T01:26:15.245Z,4.30
2023-03-15T01:28:43.944Z,4.53
2023-03-15T01:31:24.172Z,5.37
2023-03-15T01:33:51.344Z,5.20
2023-03-15T01:36:18.844Z,4.10
2023-03-15T01:38:46.508Z,4.83
2023-03-15T01:41:15.717Z,4.40
2023-03-15T01:43:52.270Z,5.47
2023-03-15T01:46:25.593Z,4.87
2023-03-15T01:49:17.835Z,4.87
2023-03-15T01:51:52.041Z,4.43
2023-03-15T01:54:26.122Z,4.83
2023-03-15T01:57:22.748Z,4.67
2023-03-15T01:59:53.969Z,5.40
2023-03-15T02:02:24.804Z,4.60
2023-03-15T02:04:59.003Z,5.47
2023-03-15T02:07:29.027Z,5.53
2023-03-15T02:10:04.350Z,6.00
2023-03-15T02:12:38.358Z,6.53
2023-03-15T02:15:06.124Z,5.53
2023-03-15T02:17:46.516Z,5.37
2023-03-15T02:20:42.500Z,5.67
2023-03-15T02:23:14.263Z,5.87
2023-03-15T02:25:49.196Z,5.70
2023-03-15T02:28:19.301Z,6.43
2023-03-15T02:30:47.354Z,4.83
2023-03-15T02:33:26.395Z,5.87
2023-03-15T02:35:53.793Z,4.63
2023-03-15T02:38:22.650Z,6.63
2023-03-15T02:40:52.923Z,5.20
2023-03-15T02:43:25.207Z,4.93
2023-03-15T02:45:53.747Z,3.80
2023-03-15T02:48:21.534Z,5.13
2023-03-15T02:50:48.422Z,4.60
2023-03-15T02:53:15.490Z,4.23
2023-03-15T02:55:42.227Z,4.67
2023-03-15T02:58:09.282Z,3.90
2023-03-15T03:00:36.158Z,4.40
2023-03-15T03:03:03.244Z,4.60
2023-03-15T03:05:31.611Z,4.57
2023-03-15T03:07:58.743Z,4.27
2023-03-15T03:10:26.595Z,3.73
2023-03-15T03:12:56.799Z,4.10
2023-03-15T03:15:30.847Z,4.73
2023-03-15T03:17:58.015Z,4.63
2023-03-15T03:20:25.242Z,5.00
2023-03-15T03:22:52.286Z,5.80
2023-03-15T03:25:19.119Z,4.80
2023-03-15T03:27:48.096Z,3.73
2023-03-15T03:30:15.939Z,4.40
2023-03-15T03:32:48.505Z,3.90
2023-03-15T03:35:16.214Z,4.63
2023-03-15T03:37:43.496Z,5.67
2023-03-15T03:40:15.292Z,4.77
2023-03-15T03:42:43.096Z,4.90
2023-03-15T03:45:10.494Z,6.03
2023-03-15T03:47:42.193Z,7.53
2023-03-15T03:50:11.466Z,7.40
2023-03-15T03:52:38.470Z,7.37
2023-03-15T03:55:09.819Z,5.60
2023-03-15T03:57:37.715Z,4.43
2023-03-15T04:00:10.917Z,4.50
2023-03-15T04:02:44.836Z,3.60
2023-03-15T04:05:15.117Z,3.80
2023-03-15T04:07:43.367Z,3.70
2023-03-15T04:10:14.867Z,3.57
2023-03-15T04:12:44.888Z,4.07
2023-03-15T04:15:13.466Z,3.97
2023-03-15T04:17:41.949Z,3.97
2023-03-15T04:20:13.040Z,4.87
2023-03-15T04:22:49.620Z,4.27
2023-03-15T04:25:39.679Z,3.33
2023-03-15T04:28:26.979Z,3.20
2023-03-15T04:31:16.055Z,3.47
2023-03-15T04:34:21.104Z,3.23
2023-03-15T04:37:01.037Z,3.80
2023-03-15T04:39:47.750Z,3.90
2023-03-15T04:42:26.086Z,2.63
2023-03-15T04:45:11.047Z,3.70
2023-03-15T04:47:37.878Z,3.97
2023-03-15T04:50:25.807Z,3.00
2023-03-15T04:53:14.527Z,3.30
2023-03-15T04:56:07.969Z,3.50
2023-03-15T04:58:34.770Z,3.00
2023-03-15T05:01:20.624Z,3.40
2023-03-15T05:04:05.115Z,3.03
2023-03-15T05:06:48.787Z,3.03
2023-03-15T05:09:39.795Z,3.73
2023-03-15T05:12:28.038Z,4.20
2023-03-15T05:15:13.835Z,5.07
2023-03-15T05:17:59.326Z,4.07
2023-03-15T05:20:58.040Z,5.83
2023-03-15T05:23:43.174Z,6.13
2023-03-15T05:26:28.607Z,4.97
2023-03-15T05:29:13.164Z,5.47
2023-03-15T05:32:00.262Z,4.90
2023-03-15T05:34:39.480Z,5.00
2023-03-15T05:37:44.444Z,5.03
2023-03-15T05:40:23.270Z,5.07
2023-03-15T05:43:10.493Z,5.13
2023-03-15T05:45:56.295Z,5.10
2023-03-15T05:48:43.572Z,4.47
2023-03-15T05:51:29.053Z,4.17
2023-03-15T05:54:09.321Z,4.93
2023-03-15T05:56:52.316Z,5.17
2023-03-15T05:59:32.085Z,4.80
2023-03-15T06:02:13.389Z,3.83
2023-03-15T06:04:48.435Z,3.43
2023-03-15T06:07:19.192Z,3.30
2023-03-15T06:09:46.306Z,5.40
2023-03-15T06:12:13.537Z,3.87
2023-03-15T06:14:41.326Z,4.10
2023-03-15T06:17:09.278Z,4.30
2023-03-15T06:19:37.838Z,4.17
2023-03-15T06:22:05.098Z,4.63
2023-03-15T06:24:40.791Z,5.50
2023-03-15T06:27:08.230Z,5.00
2023-03-15T06:29:36.024Z,5.60
2023-03-15T06:32:06.154Z,5.73
2023-03-15T06:34:35.151Z,5.37
2023-03-15T06:37:03.266Z,5.30
2023-03-15T06:39:30.442Z,5.73
2023-03-15T06:41:58.568Z,4.87
2023-03-15T06:44:27.701Z,5.00
2023-03-15T06:46:59.523Z,5.63
2023-03-15T06:49:27.386Z,5.20
2023-03-15T06:51:54.657Z,5.00
2023-03-15T06:54:23.039Z,5.83
2023-03-15T06:56:51.097Z,4.77
2023-03-15T06:59:17.907Z,5.50
2023-03-15T07:01:44.943Z,4.17
2023-03-15T07:04:11.780Z,5.67
2023-03-15T07:06:38.890Z,4.57
2023-03-15T07:09:06.037Z,5.30
2023-03-15T07:11:33.666Z,10.53
2023-03-15T07:14:00.422Z,8.43
2023-03-15T07:16:27.439Z,8.10
2023-03-15T07:18:56.157Z,7.37
2023-03-15T07:21:23.181Z,8.10
2023-03-15T07:23:49.869Z,9.87
2023-03-15T07:26:16.915Z,6.33
2023-03-15T07:28:44.796Z,7.23
2023-03-15T07:31:12.211Z,6.07
2023-03-15T07:33:39.539Z,5.10
2023-03-15T07:36:07.769Z,6.13
2023-03-15T07:38:35.238Z,6.30
2023-03-15T07:41:04.054Z,5.57
2023-03-15T07:43:31.277Z,5.20
2023-03-15T07:46:13.828Z,5.70
2023-03-15T07:48:41.107Z,6.43
2023-03-15T07:51:08.068Z,6.13
2023-03-15T07:53:34.827Z,6.93
2023-03-15T07:56:02.025Z,6.47
2023-03-15T07:58:28.815Z,6.10
2023-03-15T08:00:56.915Z,6.90
2023-03-15T08:03:24.848Z,6.20
2023-03-15T08:05:51.876Z,6.30
2023-03-15T08:08:19.130Z,6.73
2023-03-15T08:10:46.340Z,5.97
2023-03-15T08:13:13.662Z,6.40
2023-03-15T08:15:41.633Z,6.43
2023-03-15T08:18:08.590Z,5.57
2023-03-15T08:20:35.654Z,6.47
2023-03-15T08:23:02.475Z,7.27
2023-03-15T08:25:30.146Z,6.27
2023-03-15T08:27:56.950Z,7.77
2023-03-15T08:30:24.138Z,6.50
2023-03-15T08:32:52.586Z,6.13
2023-03-15T08:35:21.791Z,6.70
2023-03-15T08:37:49.645Z,5.33
2023-03-15T08:40:23.729Z,5.53
2023-03-15T08:42:51.586Z,6.07
2023-03-15T08:45:19.402Z,7.13
2023-03-15T08:47:46.523Z,7.13
2023-03-15T08:50:15.554Z,6.40
2023-03-15T08:52:43.006Z,6.50
2023-03-15T08:55:10.940Z,6.83
2023-03-15T08:57:37.674Z,7.47
2023-03-15T09:00:09.315Z,6.40
2023-03-15T09:02:37.340Z,6.53
2023-03-15T09:05:07.079Z,6.27
2023-03-15T09:07:34.467Z,6.17
2023-03-15T09:10:03.497Z,8.13
2023-03-15T09:12:32.182Z,7.07
2023-03-15T09:14:59.159Z,8.50
2023-03-15T09:17:26.097Z,7.83
2023-03-15T09:19:53.091Z,6.30
2023-03-15T09:22:34.824Z,7.00
2023-03-15T09:25:05.858Z,6.73
2023-03-15T09:27:33.274Z,9.03
2023-03-15T09:30:00.290Z,8.07
2023-03-15T09:32:27.397Z,7.20
2023-03-15T09:34:54.422Z,8.33
2023-03-15T09:37:22.015Z,8.87
2023-03-15T09:39:49.085Z,9.20
2023-03-15T09:42:30.864Z,8.03
2023-03-15T09:45:26.611Z,7.23
2023-03-15T09:48:05.575Z,7.73
2023-03-15T09:50:40.189Z,7.90
2023-03-15T09:53:14.276Z,6.37
2023-03-15T09:55:43.509Z,5.60
2023-03-15T09:58:21.434Z,6.47
2023-03-15T10:00:56.587Z,7.90
2023-03-15T10:03:32.419Z,7.23
2023-03-15T10:06:05.624Z,6.40
2023-03-15T10:08:32.709Z,7.47
2023-03-15T10:11:23.411Z,7.20
2023-03-15T10:14:06.856Z,7.53
2023-03-15T10:16:42.694Z,7.93
2023-03-15T10:19:18.896Z,8.00
2023-03-15T10:21:56.260Z,6.97
2023-03-15T10:24:34.410Z,6.40
2023-03-15T10:27:16.343Z,5.93
2023-03-15T10:29:44.312Z,5.83
2023-03-15T10:32:17.934Z,5.57
2023-03-15T10:34:52.108Z,6.07
2023-03-15T10:37:20.116Z,5.70
2023-03-15T10:39:49.458Z,5.27
2023-03-15T10:42:26.705Z,4.77
2023-03-15T10:44:53.533Z,5.77
2023-03-15T10:47:25.924Z,6.53
2023-03-15T10:49:58.341Z,5.37
2023-03-15T10:52:36.941Z,5.50
2023-03-15T10:55:17.313Z,5.57
2023-03-15T10:57:57.116Z,5.60
2023-03-15T11:00:31.166Z,4.77
2023-03-15T11:03:16.844Z,5.00
2023-03-15T11:05:47.033Z,5.47
2023-03-15T11:08:17.865Z,5.93
2023-03-15T11:10:46.286Z,5.93
2023-03-15T11:13:22.295Z,5.97
2023-03-15T11:16:05.819Z,7.73
2023-03-15T11:18:37.565Z,6.90
2023-03-15T11:21:10.422Z,6.43
2023-03-15T11:23:40.493Z,7.30
2023-03-15T11:26:25.775Z,7.50
2023-03-15T11:29:17.931Z,6.87
2023-03-15T11:31:45.124Z,5.57
2023-03-15T11:34:21.910Z,5.00
2023-03-15T11:37:02.107Z,5.90
2023-03-15T11:39:58.756Z,6.57
2023-03-15T11:42:35.765Z,6.87
2023-03-15T11:45:10.810Z,5.87
2023-03-15T11:47:47.316Z,4.70
2023-03-15T11:50:15.819Z,4.80
2023-03-15T11:52:47.678Z,7.83
2023-03-15T11:55:26.369Z,5.57
2023-03-15T11:57:54.748Z,5.40
2023-03-15T12:00:36.408Z,4.97
2023-03-15T12:03:23.842Z,4.33
2023-03-15T12:06:04.283Z,3.43
2023-03-15T12:08:34.650Z,3.20
2023-03-15T12:11:09.796Z,4.23
2023-03-15T12:13:36.868Z,5.43
2023-03-15T12:16:06.212Z,3.60
2023-03-15T12:18:41.783Z,5.30
2023-03-15T12:21:32.586Z,4.37
2023-03-15T12:24:06.161Z,4.20
2023-03-15T12:26:41.417Z,3.57
2023-03-15T12:29:15.692Z,3.67
2023-03-15T12:31:44.925Z,3.90
2023-03-15T12:34:22.995Z,4.43
2023-03-15T12:36:53.079Z,4.67
2023-03-15T12:39:38.229Z,4.33
2023-03-15T12:42:05.400Z,4.80
2023-03-15T12:44:32.595Z,6.63
2023-03-15T12:47:04.536Z,4.67
2023-03-15T12:49:42.891Z,5.73
2023-03-15T12:52:15.916Z,5.57
2023-03-15T12:54:53.976Z,4.90
2023-03-15T12:57:37.002Z,6.30
2023-03-15T13:00:14.658Z,6.60
2023-03-15T13:02:48.129Z,5.43
2023-03-15T13:05:30.905Z,5.60
2023-03-15T13:07:59.021Z,4.37
2023-03-15T13:10:50.804Z,4.83
2023-03-15T13:13:29.880Z,4.33
2023-03-15T13:16:15.447Z,3.70
2023-03-15T13:19:19.835Z,4.27
2023-03-15T13:22:21.567Z,4.33
2023-03-15T13:25:04.783Z,3.80
2023-03-15T13:28:01.831Z,3.90
2023-03-15T13:30:28.471Z,3.53
2023-03-15T13:33:09.218Z,3.77
2023-03-15T13:35:55.765Z,5.53
2023-03-15T13:38:24.469Z,3.57
2023-03-15T13:40:51.365Z,3.30
2023-03-15T13:43:18.529Z,3.97
2023-03-15T13:45:45.722Z,3.30
2023-03-15T13:48:13.394Z,3.30
2023-03-15T13:50:40.923Z,2.00
2023-03-15T13:53:07.946Z,2.53
2023-03-15T13:55:36.162Z,3.08
2023-03-15T13:58:08.546Z,4.85
2023-03-15T14:00:37.076Z,3.47
2023-03-15T14:03:09.103Z,2.77
2023-03-15T14:05:45.742Z,2.78
2023-03-15T14:08:27.360Z,2.80
2023-03-15T14:10:59.885Z,3.23
2023-03-15T14:13:33.092Z,3.03
2023-03-15T14:16:01.668Z,3.00
2023-03-15T14:18:37.042Z,2.93
2023-03-15T14:21:15.869Z,3.87
2023-03-15T14:23:46.666Z,2.80
2023-03-15T14:26:19.120Z,3.33
2023-03-15T14:29:15.222Z,2.93
2023-03-15T14:31:48.614Z,3.20
2023-03-15T14:34:23.838Z,2.17
2023-03-15T14:36:54.135Z,2.70
2023-03-15T14:39:30.404Z,3.10
2023-03-15T14:41:57.293Z,3.90
2023-03-15T14:44:24.452Z,3.67
2023-03-15T14:46:51.294Z,3.50
2023-03-15T14:49:26.521Z,3.43
2023-03-15T14:51:59.107Z,2.67
2023-03-15T14:54:26.605Z,2.80
2023-03-15T14:56:53.301Z,3.57
2023-03-15T14:59:20.423Z,4.87
2023-03-15T15:01:51.499Z,3.07
2023-03-15T15:04:19.871Z,2.50
2023-03-15T15:06:51.174Z,2.57
2023-03-15T15:09:23.153Z,2.63
2023-03-15T15:11:51.280Z,3.23
2023-03-15T15:14:18.941Z,4.37
2023-03-15T15:16:46.026Z,4.63
2023-03-15T15:19:14.145Z,5.03
2023-03-15T15:21:42.906Z,4.93
2023-03-15T15:24:16.605Z,4.07
2023-03-15T15:26:43.792Z,3.57
2023-03-15T15:29:14.299Z,3.90
2023-03-15T15:31:42.244Z,4.73
2023-03-15T15:34:10.509Z,4.03
2023-03-15T15:36:42.833Z,4.63
2023-03-15T15:39:29.533Z,3.90
2023-03-15T15:41:56.432Z,3.63
2023-03-15T15:44:25.628Z,3.57
2023-03-15T15:46:52.589Z,2.87
2023-03-15T15:49:21.011Z,3.90
2023-03-15T15:51:52.029Z,4.40
2023-03-15T15:54:24.704Z,4.67
2023-03-15T15:56:59.531Z,4.50
2023-03-15T15:59:27.171Z,4.43
2023-03-15T16:02:03.104Z,3.87
2023-03-15T16:04:31.316Z,3.90
2023-03-15T16:07:04.769Z,5.10
2023-03-15T16:09:40.615Z,5.20
2023-03-15T16:12:14.724Z,4.70
2023-03-15T16:14:42.459Z,5.00
2023-03-15T16:17:17.040Z,6.23
2023-03-15T16:19:44.326Z,5.37
2023-03-15T16:22:11.313Z,6.53
2023-03-15T16:24:44.080Z,6.30
2023-03-15T16:27:16.288Z,8.80
2023-03-15T16:29:48.620Z,11.60
2023-03-15T16:32:26.719Z,8.57
2023-03-15T16:35:01.346Z,9.97
2023-03-15T16:37:32.669Z,9.17
2023-03-15T16:40:01.645Z,10.23
2023-03-15T16:42:28.699Z,10.60
2023-03-15T16:44:55.670Z,11.17
2023-03-15T16:47:22.410Z,12.07
2023-03-15T16:49:49.418Z,14.20
2023-03-15T16:52:17.111Z,6.80
2023-03-15T16:54:47.545Z,6.63
2023-03-15T16:57:23.078Z,7.43
2023-03-15T16:59:51.340Z,6.00
2023-03-15T17:02:21.485Z,4.40
2023-03-15T17:04:49.538Z,3.60
2023-03-15T17:07:17.543Z,4.67
2023-03-15T17:09:47.527Z,3.63
2023-03-15T17:12:21.343Z,8.73
2023-03-15T17:14:48.612Z,16.97
2023-03-15T17:17:15.321Z,12.67
2023-03-15T17:19:43.867Z,13.00
2023-03-15T17:22:11.878Z,9.03
2023-03-15T17:24:39.975Z,11.07
2023-03-15T17:27:14.430Z,7.80
2023-03-15T17:29:42.428Z,7.60
2023-03-15T17:32:12.972Z,7.37
2023-03-15T17:34:40.084Z,7.80
2023-03-15T17:37:08.517Z,8.17
2023-03-15T17:39:35.584Z,9.03
2023-03-15T17:42:02.479Z,7.93
2023-03-15T17:44:29.504Z,7.90
2023-03-15T17:46:56.287Z,9.37
2023-03-15T17:49:23.290Z,10.73
2023-03-15T17:51:50.486Z,11.20
2023-03-15T17:54:18.769Z,16.47
2023-03-15T17:56:45.602Z,26.17
2023-03-15T17:59:13.402Z,29.63
2023-03-15T18:01:43.497Z,19.07
2023-03-15T18:04:13.250Z,18.40
2023-03-15T18:06:40.082Z,18.93
2023-03-15T18:09:09.316Z,18.13
2023-03-15T18:11:36.611Z,16.00
2023-03-15T18:14:04.984Z,17.57
2023-03-15T18:16:32.207Z,13.90
2023-03-15T18:18:59.321Z,7.63
2023-03-15T18:21:27.746Z,7.30
2023-03-15T18:23:55.341Z,5.60
2023-03-15T18:26:22.943Z,5.17
2023-03-15T18:28:51.411Z,4.97
2023-03-15T18:31:21.428Z,4.67
2023-03-15T18:33:49.982Z,4.20
2023-03-15T18:36:17.668Z,4.50
2023-03-15T18:38:45.350Z,4.00
2023-03-15T18:41:21.254Z,3.77
2023-03-15T18:43:52.123Z,4.90
2023-03-15T18:46:21.894Z,4.57
2023-03-15T18:48:49.931Z,4.83
2023-03-15T18:51:17.462Z,5.77
2023-03-15T18:53:44.885Z,5.57
2023-03-15T18:56:21.295Z,5.67
2023-03-15T18:58:50.237Z,3.37
2023-03-15T19:01:19.411Z,3.63
2023-03-15T19:03:46.462Z,3.57
2023-03-15T19:06:13.752Z,3.07
2023-03-15T19:08:41.040Z,3.50
2023-03-15T19:11:08.473Z,3.87
2023-03-15T19:13:35.738Z,4.13
2023-03-15T19:16:03.420Z,3.90
2023-03-15T19:18:32.343Z,3.80
2023-03-15T19:20:59.319Z,3.73
2023-03-15T19:23:26.541Z,5.20
2023-03-15T19:25:53.540Z,4.03
2023-03-15T19:28:20.538Z,4.13
2023-03-15T19:30:47.336Z,3.97
2023-03-15T19:33:14.364Z,3.83
2023-03-15T19:35:41.105Z,4.00
2023-03-15T19:38:08.132Z,3.77
2023-03-15T19:40:36.404Z,4.63
2023-03-15T19:43:03.517Z,4.03
2023-03-15T19:45:30.364Z,5.00
2023-03-15T19:47:57.568Z,5.00
2023-03-15T19:50:24.550Z,5.77
2023-03-15T19:52:51.539Z,4.97
2023-03-15T19:55:20.788Z,5.90
2023-03-15T19:57:48.018Z,6.13
2023-03-15T20:00:16.573Z,7.37
2023-03-15T20:02:44.552Z,6.30
2023-03-15T20:05:15.255Z,6.03
2023-03-15T20:07:43.478Z,5.90
2023-03-15T20:10:11.607Z,6.83
2023-03-15T20:12:42.319Z,5.77
2023-03-15T20:15:10.839Z,7.43
2023-03-15T20:17:39.060Z,5.80
2023-03-15T20:20:10.941Z,7.97
2023-03-15T20:22:41.062Z,8.00
2023-03-15T20:25:10.218Z,7.63
2023-03-15T20:27:37.655Z,8.30
2023-03-15T20:30:06.293Z,7.53
2023-03-15T20:32:33.361Z,7.40
2023-03-15T20:35:01.183Z,8.27
2023-03-15T20:37:31.040Z,9.27
2023-03-15T20:39:57.839Z,9.37
2023-03-15T20:42:25.255Z,9.40
2023-03-15T20:44:52.749Z,9.23
2023-03-15T20:47:19.791Z,11.20
2023-03-15T20:49:46.656Z,11.40
2023-03-15T20:52:13.659Z,12.80
2023-03-15T20:54:40.584Z,14.07
2023-03-15T20:57:07.718Z,11.97
2023-03-15T20:59:34.447Z,12.77
2023-03-15T21:02:02.760Z,10.23
2023-03-15T21:04:30.517Z,11.27
2023-03-15T21:07:03.985Z,10.97
2023-03-15T21:09:32.090Z,10.50
2023-03-15T21:12:00.118Z,11.33
2023-03-15T21:14:27.296Z,11.40
2023-03-15T21:16:54.368Z,10.53
2023-03-15T21:19:22.842Z,10.20
2023-03-15T21:21:49.879Z,11.73
2023-03-15T21:24:16.609Z,10.27
2023-03-15T21:26:44.762Z,10.70
2023-03-15T21:29:12.332Z,8.77
2023-03-15T21:31:39.467Z,8.07
2023-03-15T21:34:06.512Z,7.57
2023-03-15T21:36:33.685Z,7.77
2023-03-15T21:39:01.477Z,6.93
2023-03-15T21:41:28.577Z,6.87
2023-03-15T21:43:55.455Z,7.07
2023-03-15T21:46:22.600Z,6.80
2023-03-15T21:48:49.533Z,8.03
2023-03-15T21:51:16.679Z,9.20
2023-03-15T21:53:46.215Z,8.53
2023-03-15T21:56:13.878Z,9.07
2023-03-15T21:58:41.909Z,9.00
2023-03-15T22:01:09.531Z,12.33
2023-03-15T22:03:36.864Z,12.13
2023-03-15T22:06:03.992Z,12.00
2023-03-15T22:08:30.928Z,12.67
2023-03-15T22:10:58.995Z,12.53
2023-03-15T22:13:26.834Z,12.60
2023-03-15T22:15:54.614Z,9.63
2023-03-15T22:18:21.680Z,9.53
2023-03-15T22:20:51.009Z,9.97
2023-03-15T22:23:18.761Z,8.97
2023-03-15T22:25:46.224Z,9.17
2023-03-15T22:28:13.773Z,9.77
2023-03-15T22:30:41.739Z,8.90
2023-03-15T22:33:08.957Z,8.20
2023-03-15T22:35:36.005Z,8.47
2023-03-15T22:38:09.954Z,9.23
2023-03-15T22:40:39.524Z,10.27
2023-03-15T22:43:07.765Z,9.80
2023-03-15T22:45:34.849Z,9.37
2023-03-15T22:48:01.658Z,9.00
2023-03-15T22:50:28.901Z,9.03
2023-03-15T22:52:55.664Z,9.33
2023-03-15T22:55:22.868Z,9.73
2023-03-15T22:57:49.673Z,9.47
2023-03-15T23:00:21.129Z,10.40
2023-03-15T23:02:47.989Z,9.90
2023-03-15T23:05:15.247Z,9.80
2023-03-15T23:07:42.183Z,10.23
2023-03-15T23:10:11.334Z,9.10
2023-03-15T23:12:38.175Z,9.43
2023-03-15T23:15:05.854Z,9.23
2023-03-15T23:17:32.667Z,9.63
2023-03-15T23:19:59.869Z,9.13
2023-03-15T23:22:26.585Z,8.10
2023-03-15T23:24:57.810Z,11.30
2023-03-15T23:27:26.122Z,9.20
2023-03-15T23:29:54.864Z,9.77
2023-03-15T23:32:24.029Z,9.70
2023-03-15T23:34:51.177Z,9.73
2023-03-15T23:37:17.944Z,10.17
2023-03-15T23:39:45.022Z,10.53
2023-03-15T23:42:12.436Z,10.20
2023-03-15T23:44:39.597Z,9.87
2023-03-15T23:47:06.542Z,10.10
2023-03-15T23:49:34.006Z,10.63
2023-03-15T23:52:05.816Z,11.30
2023-03-15T23:54:39.418Z,11.30
2023-03-15T23:57:07.619Z,10.00
2023-03-15T23:59:36.117Z,10.13
